sensor_id;sensor_type;location;lat;lon;timestamp;temperature;humidity
15481;DHT22;7842;50.904;6.670;2022-07-11T00:01:42;18.30;99.90
15481;DHT22;7842;50.904;6.670;2022-07-11T00:04:07;18.20;99.90
15481;DHT22;7842;50.904;6.670;2022-07-11T00:06:33;18.30;99.90
15481;DHT22;7842;50.904;6.670;2022-07-11T00:08:59;18.30;99.90
15481;DHT22;7842;50.904;6.670;2022-07-11T00:11:25;18.20;99.90
15481;DHT22;7842;50.904;6.670;2022-07-11T00:13:50;18.20;99.90
15481;DHT22;7842;50.904;6.670;2022-07-11T00:16:16;18.20;99.90
15481;DHT22;7842;50.904;6.670;2022-07-11T00:18:42;18.20;99.90
15481;DHT22;7842;50.904;6.670;2022-07-11T00:21:07;18.20;99.90
15481;DHT22;7842;50.904;6.670;2022-07-11T00:23:33;18.20;99.90
15481;DHT22;7842;50.904;6.670;2022-07-11T00:25:59;18.20;99.90
15481;DHT22;7842;50.904;6.670;2022-07-11T00:28:24;18.20;99.90
15481;DHT22;7842;50.904;6.670;2022-07-11T00:30:50;18.10;99.90
15481;DHT22;7842;50.904;6.670;2022-07-11T00:33:18;18.10;99.90
15481;DHT22;7842;50.904;6.670;2022-07-11T00:35:44;18.20;99.90
15481;DHT22;7842;50.904;6.670;2022-07-11T00:38:09;18.10;99.90
15481;DHT22;7842;50.904;6.670;2022-07-11T00:40:35;18.10;99.90
15481;DHT22;7842;50.904;6.670;2022-07-11T00:43:03;18.10;99.90
15481;DHT22;7842;50.904;6.670;2022-07-11T00:45:29;20.00;99.90
15481;DHT22;7842;50.904;6.670;2022-07-11T00:47:54;18.10;99.90
15481;DHT22;7842;50.904;6.670;2022-07-11T00:50:21;18.10;99.90
15481;DHT22;7842;50.904;6.670;2022-07-11T00:52:47;18.10;99.90
15481;DHT22;7842;50.904;6.670;2022-07-11T00:55:13;18.10;99.90
15481;DHT22;7842;50.904;6.670;2022-07-11T00:57:39;18.10;99.90
15481;DHT22;7842;50.904;6.670;2022-07-11T01:00:05;18.00;99.90
15481;DHT22;7842;50.904;6.670;2022-07-11T01:02:32;18.00;99.90
15481;DHT22;7842;50.904;6.670;2022-07-11T01:04:57;20.60;99.90
15481;DHT22;7842;50.904;6.670;2022-07-11T01:07:23;18.00;99.90
15481;DHT22;7842;50.904;6.670;2022-07-11T01:09:50;17.90;99.90
15481;DHT22;7842;50.904;6.670;2022-07-11T01:12:16;17.90;99.90
15481;DHT22;7842;50.904;6.670;2022-07-11T01:14:55;17.80;99.90
15481;DHT22;7842;50.904;6.670;2022-07-11T01:17:23;17.80;99.90
15481;DHT22;7842;50.904;6.670;2022-07-11T01:19:49;19.10;99.90
15481;DHT22;7842;50.904;6.670;2022-07-11T01:22:17;17.70;99.90
15481;DHT22;7842;50.904;6.670;2022-07-11T01:24:46;19.00;99.90
15481;DHT22;7842;50.904;6.670;2022-07-11T01:27:12;17.60;99.90
15481;DHT22;7842;50.904;6.670;2022-07-11T01:29:39;17.60;99.90
15481;DHT22;7842;50.904;6.670;2022-07-11T01:32:06;17.60;99.90
15481;DHT22;7842;50.904;6.670;2022-07-11T01:34:33;17.60;99.90
15481;DHT22;7842;50.904;6.670;2022-07-11T01:36:59;18.90;99.90
15481;DHT22;7842;50.904;6.670;2022-07-11T01:39:25;17.50;99.90
15481;DHT22;7842;50.904;6.670;2022-07-11T01:41:53;17.40;99.90
15481;DHT22;7842;50.904;6.670;2022-07-11T01:44:19;19.00;99.90
15481;DHT22;7842;50.904;6.670;2022-07-11T01:46:44;17.40;99.90
15481;DHT22;7842;50.904;6.670;2022-07-11T01:49:10;17.90;99.90
15481;DHT22;7842;50.904;6.670;2022-07-11T01:51:36;17.30;99.90
15481;DHT22;7842;50.904;6.670;2022-07-11T01:54:01;18.60;99.90
15481;DHT22;7842;50.904;6.670;2022-07-11T01:56:27;17.30;99.90
15481;DHT22;7842;50.904;6.670;2022-07-11T01:58:54;17.50;99.90
15481;DHT22;7842;50.904;6.670;2022-07-11T02:01:23;17.30;99.90
15481;DHT22;7842;50.904;6.670;2022-07-11T02:03:48;17.20;99.90
15481;DHT22;7842;50.904;6.670;2022-07-11T02:06:14;17.20;99.90
15481;DHT22;7842;50.904;6.670;2022-07-11T02:08:39;17.20;99.90
15481;DHT22;7842;50.904;6.670;2022-07-11T02:11:05;17.50;99.90
15481;DHT22;7842;50.904;6.670;2022-07-11T02:13:31;17.30;99.90
15481;DHT22;7842;50.904;6.670;2022-07-11T02:15:57;17.50;99.90
15481;DHT22;7842;50.904;6.670;2022-07-11T02:18:22;17.10;99.90
15481;DHT22;7842;50.904;6.670;2022-07-11T02:20:48;17.10;99.90
15481;DHT22;7842;50.904;6.670;2022-07-11T02:23:18;17.00;99.90
15481;DHT22;7842;50.904;6.670;2022-07-11T02:25:44;17.00;99.90
15481;DHT22;7842;50.904;6.670;2022-07-11T02:28:10;17.00;99.90
15481;DHT22;7842;50.904;6.670;2022-07-11T02:30:37;16.90;99.90
15481;DHT22;7842;50.904;6.670;2022-07-11T02:33:04;16.90;99.90
15481;DHT22;7842;50.904;6.670;2022-07-11T02:35:30;16.90;99.90
15481;DHT22;7842;50.904;6.670;2022-07-11T02:37:56;16.80;99.90
15481;DHT22;7842;50.904;6.670;2022-07-11T02:40:21;16.80;99.90
15481;DHT22;7842;50.904;6.670;2022-07-11T02:42:47;16.70;99.90
15481;DHT22;7842;50.904;6.670;2022-07-11T02:45:13;16.70;99.90
15481;DHT22;7842;50.904;6.670;2022-07-11T02:47:40;16.60;99.90
15481;DHT22;7842;50.904;6.670;2022-07-11T02:50:13;16.60;99.90
15481;DHT22;7842;50.904;6.670;2022-07-11T02:52:39;16.60;99.90
15481;DHT22;7842;50.904;6.670;2022-07-11T02:55:07;16.50;99.90
15481;DHT22;7842;50.904;6.670;2022-07-11T02:57:33;16.50;99.90
15481;DHT22;7842;50.904;6.670;2022-07-11T02:59:59;16.40;99.90
15481;DHT22;7842;50.904;6.670;2022-07-11T03:02:25;17.50;99.90
15481;DHT22;7842;50.904;6.670;2022-07-11T03:04:51;16.30;99.90
15481;DHT22;7842;50.904;6.670;2022-07-11T03:07:17;16.30;99.90
15481;DHT22;7842;50.904;6.670;2022-07-11T03:09:42;16.30;99.90
15481;DHT22;7842;50.904;6.670;2022-07-11T03:12:09;16.30;99.90
15481;DHT22;7842;50.904;6.670;2022-07-11T03:14:34;16.20;99.90
15481;DHT22;7842;50.904;6.670;2022-07-11T03:17:00;16.50;99.90
15481;DHT22;7842;50.904;6.670;2022-07-11T03:19:26;16.20;99.90
15481;DHT22;7842;50.904;6.670;2022-07-11T03:21:51;16.30;99.90
15481;DHT22;7842;50.904;6.670;2022-07-11T03:24:17;16.20;99.90
15481;DHT22;7842;50.904;6.670;2022-07-11T03:26:43;16.10;99.90
15481;DHT22;7842;50.904;6.670;2022-07-11T03:29:08;16.10;99.90
15481;DHT22;7842;50.904;6.670;2022-07-11T03:31:34;16.10;99.90
15481;DHT22;7842;50.904;6.670;2022-07-11T03:34:00;16.00;99.90
15481;DHT22;7842;50.904;6.670;2022-07-11T03:36:26;16.00;99.90
15481;DHT22;7842;50.904;6.670;2022-07-11T03:38:51;16.00;99.90
15481;DHT22;7842;50.904;6.670;2022-07-11T03:41:17;16.00;99.90
15481;DHT22;7842;50.904;6.670;2022-07-11T03:43:43;18.20;99.90
15481;DHT22;7842;50.904;6.670;2022-07-11T03:46:08;15.90;99.90
15481;DHT22;7842;50.904;6.670;2022-07-11T03:48:34;15.90;99.90
15481;DHT22;7842;50.904;6.670;2022-07-11T03:51:00;15.90;99.90
15481;DHT22;7842;50.904;6.670;2022-07-11T03:53:25;15.90;99.90
15481;DHT22;7842;50.904;6.670;2022-07-11T03:55:51;15.80;99.90
15481;DHT22;7842;50.904;6.670;2022-07-11T03:58:16;15.80;99.90
15481;DHT22;7842;50.904;6.670;2022-07-11T04:00:42;15.80;99.90
15481;DHT22;7842;50.904;6.670;2022-07-11T04:03:07;15.70;99.90
15481;DHT22;7842;50.904;6.670;2022-07-11T04:05:34;15.70;99.90
15481;DHT22;7842;50.904;6.670;2022-07-11T04:07:59;15.70;99.90
15481;DHT22;7842;50.904;6.670;2022-07-11T04:10:25;15.70;99.90
15481;DHT22;7842;50.904;6.670;2022-07-11T04:12:51;17.40;99.90
15481;DHT22;7842;50.904;6.670;2022-07-11T04:15:16;18.80;99.90
15481;DHT22;7842;50.904;6.670;2022-07-11T04:17:42;15.80;99.90
15481;DHT22;7842;50.904;6.670;2022-07-11T04:20:08;15.80;99.90
15481;DHT22;7842;50.904;6.670;2022-07-11T04:22:34;15.80;99.90
15481;DHT22;7842;50.904;6.670;2022-07-11T04:24:59;15.70;99.90
15481;DHT22;7842;50.904;6.670;2022-07-11T04:27:25;15.80;99.90
15481;DHT22;7842;50.904;6.670;2022-07-11T04:29:51;15.80;99.90
15481;DHT22;7842;50.904;6.670;2022-07-11T04:32:17;18.00;99.90
15481;DHT22;7842;50.904;6.670;2022-07-11T04:34:42;16.80;99.90
15481;DHT22;7842;50.904;6.670;2022-07-11T04:37:08;18.20;99.90
15481;DHT22;7842;50.904;6.670;2022-07-11T04:39:34;15.90;99.90
15481;DHT22;7842;50.904;6.670;2022-07-11T04:41:59;17.20;99.90
15481;DHT22;7842;50.904;6.670;2022-07-11T04:44:27;18.60;99.90
15481;DHT22;7842;50.904;6.670;2022-07-11T04:46:52;16.00;99.90
15481;DHT22;7842;50.904;6.670;2022-07-11T04:49:18;16.00;99.90
15481;DHT22;7842;50.904;6.670;2022-07-11T04:51:44;16.10;99.90
15481;DHT22;7842;50.904;6.670;2022-07-11T04:54:10;16.20;99.90
15481;DHT22;7842;50.904;6.670;2022-07-11T04:56:35;16.20;99.90
15481;DHT22;7842;50.904;6.670;2022-07-11T04:59:01;17.30;99.90
15481;DHT22;7842;50.904;6.670;2022-07-11T05:01:26;19.30;99.90
15481;DHT22;7842;50.904;6.670;2022-07-11T05:03:55;16.20;99.90
15481;DHT22;7842;50.904;6.670;2022-07-11T05:06:20;16.20;99.90
15481;DHT22;7842;50.904;6.670;2022-07-11T05:08:46;16.20;99.90
15481;DHT22;7842;50.904;6.670;2022-07-11T05:11:11;16.30;99.90
15481;DHT22;7842;50.904;6.670;2022-07-11T05:13:37;16.30;99.90
15481;DHT22;7842;50.904;6.670;2022-07-11T05:16:03;16.40;99.90
15481;DHT22;7842;50.904;6.670;2022-07-11T05:18:29;16.40;99.90
15481;DHT22;7842;50.904;6.670;2022-07-11T05:20:54;16.40;99.90
15481;DHT22;7842;50.904;6.670;2022-07-11T05:23:20;16.40;99.90
15481;DHT22;7842;50.904;6.670;2022-07-11T05:25:46;18.50;99.90
15481;DHT22;7842;50.904;6.670;2022-07-11T05:28:11;17.70;99.90
15481;DHT22;7842;50.904;6.670;2022-07-11T05:30:37;16.50;99.90
15481;DHT22;7842;50.904;6.670;2022-07-11T05:33:03;19.00;99.90
15481;DHT22;7842;50.904;6.670;2022-07-11T05:35:28;16.60;99.90
15481;DHT22;7842;50.904;6.670;2022-07-11T05:37:54;20.10;99.90
15481;DHT22;7842;50.904;6.670;2022-07-11T05:40:19;18.60;99.90
15481;DHT22;7842;50.904;6.670;2022-07-11T05:42:45;17.20;99.90
15481;DHT22;7842;50.904;6.670;2022-07-11T05:45:11;16.70;99.90
15481;DHT22;7842;50.904;6.670;2022-07-11T05:47:36;19.40;99.90
15481;DHT22;7842;50.904;6.670;2022-07-11T05:50:02;16.70;99.90
15481;DHT22;7842;50.904;6.670;2022-07-11T05:52:28;16.70;99.90
15481;DHT22;7842;50.904;6.670;2022-07-11T05:54:54;18.00;99.90
15481;DHT22;7842;50.904;6.670;2022-07-11T05:57:20;17.80;99.90
15481;DHT22;7842;50.904;6.670;2022-07-11T05:59:45;18.80;99.90
15481;DHT22;7842;50.904;6.670;2022-07-11T06:02:12;16.80;99.90
15481;DHT22;7842;50.904;6.670;2022-07-11T06:04:38;19.00;99.90
15481;DHT22;7842;50.904;6.670;2022-07-11T06:07:04;16.80;99.90
15481;DHT22;7842;50.904;6.670;2022-07-11T06:09:30;16.80;99.90
15481;DHT22;7842;50.904;6.670;2022-07-11T06:11:55;16.80;99.90
15481;DHT22;7842;50.904;6.670;2022-07-11T06:14:21;18.00;99.90
15481;DHT22;7842;50.904;6.670;2022-07-11T06:16:49;19.80;99.90
15481;DHT22;7842;50.904;6.670;2022-07-11T06:19:15;16.90;99.90
15481;DHT22;7842;50.904;6.670;2022-07-11T06:21:41;16.90;99.90
15481;DHT22;7842;50.904;6.670;2022-07-11T06:24:06;17.00;99.90
15481;DHT22;7842;50.904;6.670;2022-07-11T06:26:32;19.70;99.90
15481;DHT22;7842;50.904;6.670;2022-07-11T06:28:58;19.60;99.90
15481;DHT22;7842;50.904;6.670;2022-07-11T06:31:23;17.10;99.90
15481;DHT22;7842;50.904;6.670;2022-07-11T06:33:49;17.10;99.90
15481;DHT22;7842;50.904;6.670;2022-07-11T06:36:23;18.30;99.90
15481;DHT22;7842;50.904;6.670;2022-07-11T06:38:52;17.10;99.90
15481;DHT22;7842;50.904;6.670;2022-07-11T06:41:18;17.10;99.90
15481;DHT22;7842;50.904;6.670;2022-07-11T06:43:44;17.00;99.90
15481;DHT22;7842;50.904;6.670;2022-07-11T06:46:13;17.20;99.90
15481;DHT22;7842;50.904;6.670;2022-07-11T06:48:39;17.20;99.90
15481;DHT22;7842;50.904;6.670;2022-07-11T06:51:05;17.30;99.90
15481;DHT22;7842;50.904;6.670;2022-07-11T06:53:30;17.20;99.90
15481;DHT22;7842;50.904;6.670;2022-07-11T06:55:57;17.30;99.90
15481;DHT22;7842;50.904;6.670;2022-07-11T06:58:22;17.30;99.90
15481;DHT22;7842;50.904;6.670;2022-07-11T07:01:02;17.40;99.90
15481;DHT22;7842;50.904;6.670;2022-07-11T07:03:28;17.40;99.90
15481;DHT22;7842;50.904;6.670;2022-07-11T07:05:55;20.50;99.90
15481;DHT22;7842;50.904;6.670;2022-07-11T07:08:25;17.40;99.90
15481;DHT22;7842;50.904;6.670;2022-07-11T07:10:52;17.40;99.90
15481;DHT22;7842;50.904;6.670;2022-07-11T07:13:19;18.10;99.90
15481;DHT22;7842;50.904;6.670;2022-07-11T07:15:46;18.10;99.90
15481;DHT22;7842;50.904;6.670;2022-07-11T07:18:11;17.60;99.90
15481;DHT22;7842;50.904;6.670;2022-07-11T07:20:37;17.60;99.90
15481;DHT22;7842;50.904;6.670;2022-07-11T07:23:03;17.60;99.90
15481;DHT22;7842;50.904;6.670;2022-07-11T07:25:29;17.80;99.90
15481;DHT22;7842;50.904;6.670;2022-07-11T07:27:54;19.20;99.90
15481;DHT22;7842;50.904;6.670;2022-07-11T07:30:20;21.20;99.90
15481;DHT22;7842;50.904;6.670;2022-07-11T07:32:45;20.50;99.90
15481;DHT22;7842;50.904;6.670;2022-07-11T07:35:11;17.70;99.90
15481;DHT22;7842;50.904;6.670;2022-07-11T07:37:37;20.40;99.90
15481;DHT22;7842;50.904;6.670;2022-07-11T07:40:03;17.60;99.90
15481;DHT22;7842;50.904;6.670;2022-07-11T07:42:29;17.60;99.90
15481;DHT22;7842;50.904;6.670;2022-07-11T07:44:55;17.70;99.90
15481;DHT22;7842;50.904;6.670;2022-07-11T07:47:20;17.70;99.90
15481;DHT22;7842;50.904;6.670;2022-07-11T07:49:46;20.30;99.90
15481;DHT22;7842;50.904;6.670;2022-07-11T07:52:11;20.60;99.90
15481;DHT22;7842;50.904;6.670;2022-07-11T07:54:37;17.70;99.90
15481;DHT22;7842;50.904;6.670;2022-07-11T07:57:03;17.90;99.90
15481;DHT22;7842;50.904;6.670;2022-07-11T07:59:29;18.00;99.90
15481;DHT22;7842;50.904;6.670;2022-07-11T08:01:54;18.00;99.90
15481;DHT22;7842;50.904;6.670;2022-07-11T08:04:20;18.00;99.90
15481;DHT22;7842;50.904;6.670;2022-07-11T08:06:45;18.00;99.90
15481;DHT22;7842;50.904;6.670;2022-07-11T08:09:11;18.00;99.90
15481;DHT22;7842;50.904;6.670;2022-07-11T08:11:38;18.00;99.90
15481;DHT22;7842;50.904;6.670;2022-07-11T08:14:04;18.10;99.90
15481;DHT22;7842;50.904;6.670;2022-07-11T08:16:33;18.10;99.90
15481;DHT22;7842;50.904;6.670;2022-07-11T08:19:00;20.30;99.90
15481;DHT22;7842;50.904;6.670;2022-07-11T08:21:26;18.20;99.90
15481;DHT22;7842;50.904;6.670;2022-07-11T08:23:52;18.20;99.90
15481;DHT22;7842;50.904;6.670;2022-07-11T08:26:18;18.30;99.90
15481;DHT22;7842;50.904;6.670;2022-07-11T08:28:43;18.20;99.90
15481;DHT22;7842;50.904;6.670;2022-07-11T08:31:09;21.60;99.90
15481;DHT22;7842;50.904;6.670;2022-07-11T08:33:34;18.30;99.90
15481;DHT22;7842;50.904;6.670;2022-07-11T08:36:00;18.40;99.90
15481;DHT22;7842;50.904;6.670;2022-07-11T08:38:26;18.40;99.90
15481;DHT22;7842;50.904;6.670;2022-07-11T08:40:52;18.40;99.90
15481;DHT22;7842;50.904;6.670;2022-07-11T08:43:23;20.10;99.90
15481;DHT22;7842;50.904;6.670;2022-07-11T08:45:50;18.40;99.90
15481;DHT22;7842;50.904;6.670;2022-07-11T08:48:19;18.30;99.90
15481;DHT22;7842;50.904;6.670;2022-07-11T08:50:44;19.10;99.90
15481;DHT22;7842;50.904;6.670;2022-07-11T08:53:11;19.60;99.90
15481;DHT22;7842;50.904;6.670;2022-07-11T08:55:38;18.50;99.90
15481;DHT22;7842;50.904;6.670;2022-07-11T08:58:03;18.40;99.90
15481;DHT22;7842;50.904;6.670;2022-07-11T09:00:31;18.40;99.90
15481;DHT22;7842;50.904;6.670;2022-07-11T09:02:57;18.50;99.90
15481;DHT22;7842;50.904;6.670;2022-07-11T09:05:23;18.60;99.90
15481;DHT22;7842;50.904;6.670;2022-07-11T09:07:49;21.50;99.90
15481;DHT22;7842;50.904;6.670;2022-07-11T09:10:17;18.60;99.90
15481;DHT22;7842;50.904;6.670;2022-07-11T09:12:59;18.70;99.90
15481;DHT22;7842;50.904;6.670;2022-07-11T09:15:45;18.90;99.90
15481;DHT22;7842;50.904;6.670;2022-07-11T09:21:01;19.00;99.90
15481;DHT22;7842;50.904;6.670;2022-07-11T09:23:46;19.10;99.90
15481;DHT22;7842;50.904;6.670;2022-07-11T09:26:32;19.00;99.90
15481;DHT22;7842;50.904;6.670;2022-07-11T09:28:59;19.10;99.90
15481;DHT22;7842;50.904;6.670;2022-07-11T09:31:27;19.10;99.90
15481;DHT22;7842;50.904;6.670;2022-07-11T09:34:04;19.20;99.90
15481;DHT22;7842;50.904;6.670;2022-07-11T09:36:53;19.20;99.90
15481;DHT22;7842;50.904;6.670;2022-07-11T09:39:23;19.20;99.90
15481;DHT22;7842;50.904;6.670;2022-07-11T09:41:51;19.10;99.90
15481;DHT22;7842;50.904;6.670;2022-07-11T09:44:27;19.20;99.90
15481;DHT22;7842;50.904;6.670;2022-07-11T09:46:55;19.10;99.90
15481;DHT22;7842;50.904;6.670;2022-07-11T09:49:37;19.10;99.90
15481;DHT22;7842;50.904;6.670;2022-07-11T09:52:15;19.10;99.90
15481;DHT22;7842;50.904;6.670;2022-07-11T09:55:01;19.10;99.90
15481;DHT22;7842;50.904;6.670;2022-07-11T09:57:34;19.10;99.90
15481;DHT22;7842;50.904;6.670;2022-07-11T10:00:04;18.90;99.90
15481;DHT22;7842;50.904;6.670;2022-07-11T10:02:30;18.90;99.90
15481;DHT22;7842;50.904;6.670;2022-07-11T10:04:58;18.90;99.90
15481;DHT22;7842;50.904;6.670;2022-07-11T10:07:24;19.00;99.90
15481;DHT22;7842;50.904;6.670;2022-07-11T10:09:50;18.90;99.90
15481;DHT22;7842;50.904;6.670;2022-07-11T10:12:16;19.00;99.90
15481;DHT22;7842;50.904;6.670;2022-07-11T10:14:41;19.20;99.90
15481;DHT22;7842;50.904;6.670;2022-07-11T10:22:41;19.30;99.90
15481;DHT22;7842;50.904;6.670;2022-07-11T10:30:50;19.30;99.90
15481;DHT22;7842;50.904;6.670;2022-07-11T10:33:17;19.30;99.90
15481;DHT22;7842;50.904;6.670;2022-07-11T10:35:45;19.40;99.90
15481;DHT22;7842;50.904;6.670;2022-07-11T10:38:11;19.90;99.90
15481;DHT22;7842;50.904;6.670;2022-07-11T10:40:45;19.50;99.90
15481;DHT22;7842;50.904;6.670;2022-07-11T10:46:02;19.30;99.90
15481;DHT22;7842;50.904;6.670;2022-07-11T10:48:31;19.30;99.90
15481;DHT22;7842;50.904;6.670;2022-07-11T10:53:50;19.30;99.90
15481;DHT22;7842;50.904;6.670;2022-07-11T10:56:50;19.40;99.90
15481;DHT22;7842;50.904;6.670;2022-07-11T10:59:18;19.50;99.90
15481;DHT22;7842;50.904;6.670;2022-07-11T11:02:09;19.50;99.90
15481;DHT22;7842;50.904;6.670;2022-07-11T11:07:40;19.60;99.90
15481;DHT22;7842;50.904;6.670;2022-07-11T11:15:49;19.70;99.90
15481;DHT22;7842;50.904;6.670;2022-07-11T11:23:33;19.90;99.90
15481;DHT22;7842;50.904;6.670;2022-07-11T11:28:38;20.00;99.90
15481;DHT22;7842;50.904;6.670;2022-07-11T11:31:05;19.90;99.90
15481;DHT22;7842;50.904;6.670;2022-07-11T11:33:36;19.80;99.90
15481;DHT22;7842;50.904;6.670;2022-07-11T11:36:09;19.80;99.90
15481;DHT22;7842;50.904;6.670;2022-07-11T11:38:37;19.90;99.90
15481;DHT22;7842;50.904;6.670;2022-07-11T11:41:04;19.90;99.90
15481;DHT22;7842;50.904;6.670;2022-07-11T11:43:36;19.70;99.90
15481;DHT22;7842;50.904;6.670;2022-07-11T11:46:02;19.80;99.90
15481;DHT22;7842;50.904;6.670;2022-07-11T11:48:33;19.90;99.90
15481;DHT22;7842;50.904;6.670;2022-07-11T11:51:08;20.00;99.90
15481;DHT22;7842;50.904;6.670;2022-07-11T11:53:45;20.00;99.90
15481;DHT22;7842;50.904;6.670;2022-07-11T11:56:28;20.00;99.90
15481;DHT22;7842;50.904;6.670;2022-07-11T11:58:56;20.00;99.90
15481;DHT22;7842;50.904;6.670;2022-07-11T12:01:31;19.90;99.90
15481;DHT22;7842;50.904;6.670;2022-07-11T12:04:02;19.90;99.90
15481;DHT22;7842;50.904;6.670;2022-07-11T12:06:36;20.10;99.90
15481;DHT22;7842;50.904;6.670;2022-07-11T12:11:35;20.40;99.90
15481;DHT22;7842;50.904;6.670;2022-07-11T12:14:06;20.60;99.90
15481;DHT22;7842;50.904;6.670;2022-07-11T12:16:33;20.70;99.90
15481;DHT22;7842;50.904;6.670;2022-07-11T12:19:09;20.80;99.90
15481;DHT22;7842;50.904;6.670;2022-07-11T12:21:40;20.70;99.90
15481;DHT22;7842;50.904;6.670;2022-07-11T12:24:07;20.70;99.90
15481;DHT22;7842;50.904;6.670;2022-07-11T12:26:35;20.70;99.90
15481;DHT22;7842;50.904;6.670;2022-07-11T12:31:51;20.60;99.90
15481;DHT22;7842;50.904;6.670;2022-07-11T12:34:26;20.70;99.90
15481;DHT22;7842;50.904;6.670;2022-07-11T12:37:19;20.80;99.90
15481;DHT22;7842;50.904;6.670;2022-07-11T12:39:50;21.00;99.90
15481;DHT22;7842;50.904;6.670;2022-07-11T12:42:32;22.20;99.90
15481;DHT22;7842;50.904;6.670;2022-07-11T12:45:07;21.20;99.90
15481;DHT22;7842;50.904;6.670;2022-07-11T12:47:34;21.20;99.90
15481;DHT22;7842;50.904;6.670;2022-07-11T12:50:28;21.20;99.90
15481;DHT22;7842;50.904;6.670;2022-07-11T12:52:55;20.90;99.90
15481;DHT22;7842;50.904;6.670;2022-07-11T12:55:32;21.40;99.90
15481;DHT22;7842;50.904;6.670;2022-07-11T12:58:12;20.80;99.90
15481;DHT22;7842;50.904;6.670;2022-07-11T13:01:04;20.90;99.90
15481;DHT22;7842;50.904;6.670;2022-07-11T13:03:32;20.90;99.90
15481;DHT22;7842;50.904;6.670;2022-07-11T13:05:58;20.80;99.90
15481;DHT22;7842;50.904;6.670;2022-07-11T13:08:29;20.90;99.90
15481;DHT22;7842;50.904;6.670;2022-07-11T13:11:20;20.80;99.90
15481;DHT22;7842;50.904;6.670;2022-07-11T13:13:48;20.80;99.90
15481;DHT22;7842;50.904;6.670;2022-07-11T13:16:15;20.80;99.90
15481;DHT22;7842;50.904;6.670;2022-07-11T13:18:41;20.70;99.90
15481;DHT22;7842;50.904;6.670;2022-07-11T13:21:07;20.90;99.90
15481;DHT22;7842;50.904;6.670;2022-07-11T13:23:35;20.90;99.90
15481;DHT22;7842;50.904;6.670;2022-07-11T13:26:01;20.90;99.90
15481;DHT22;7842;50.904;6.670;2022-07-11T13:28:27;20.80;99.90
15481;DHT22;7842;50.904;6.670;2022-07-11T13:30:52;20.90;99.90
15481;DHT22;7842;50.904;6.670;2022-07-11T13:33:21;21.00;99.90
15481;DHT22;7842;50.904;6.670;2022-07-11T13:35:48;20.90;99.90
15481;DHT22;7842;50.904;6.670;2022-07-11T13:38:14;20.80;99.90
15481;DHT22;7842;50.904;6.670;2022-07-11T13:40:40;20.70;99.90
15481;DHT22;7842;50.904;6.670;2022-07-11T13:43:06;20.70;99.90
15481;DHT22;7842;50.904;6.670;2022-07-11T13:45:32;20.70;99.90
15481;DHT22;7842;50.904;6.670;2022-07-11T13:47:58;20.60;99.90
15481;DHT22;7842;50.904;6.670;2022-07-11T13:50:24;20.80;99.90
15481;DHT22;7842;50.904;6.670;2022-07-11T13:52:50;20.70;99.90
15481;DHT22;7842;50.904;6.670;2022-07-11T13:55:20;20.80;99.90
15481;DHT22;7842;50.904;6.670;2022-07-11T13:57:49;20.90;99.90
15481;DHT22;7842;50.904;6.670;2022-07-11T14:00:17;19.60;99.90
15481;DHT22;7842;50.904;6.670;2022-07-11T14:02:43;21.10;99.90
15481;DHT22;7842;50.904;6.670;2022-07-11T14:05:09;21.30;99.90
15481;DHT22;7842;50.904;6.670;2022-07-11T14:07:35;21.20;99.90
15481;DHT22;7842;50.904;6.670;2022-07-11T14:10:01;21.30;99.90
15481;DHT22;7842;50.904;6.670;2022-07-11T14:12:27;21.20;99.90
15481;DHT22;7842;50.904;6.670;2022-07-11T14:14:54;21.30;99.90
15481;DHT22;7842;50.904;6.670;2022-07-11T14:17:20;22.20;99.90
15481;DHT22;7842;50.904;6.670;2022-07-11T14:19:46;21.20;99.90
15481;DHT22;7842;50.904;6.670;2022-07-11T14:22:12;21.20;99.90
15481;DHT22;7842;50.904;6.670;2022-07-11T14:24:38;21.30;99.90
15481;DHT22;7842;50.904;6.670;2022-07-11T14:27:04;21.30;99.90
15481;DHT22;7842;50.904;6.670;2022-07-11T14:29:30;21.20;99.90
15481;DHT22;7842;50.904;6.670;2022-07-11T14:31:57;21.50;99.90
15481;DHT22;7842;50.904;6.670;2022-07-11T14:34:23;21.20;99.90
15481;DHT22;7842;50.904;6.670;2022-07-11T14:36:49;21.10;99.90
15481;DHT22;7842;50.904;6.670;2022-07-11T14:39:15;21.20;99.90
15481;DHT22;7842;50.904;6.670;2022-07-11T14:41:41;21.20;99.90
15481;DHT22;7842;50.904;6.670;2022-07-11T14:44:07;21.40;99.90
15481;DHT22;7842;50.904;6.670;2022-07-11T14:46:33;21.50;99.90
15481;DHT22;7842;50.904;6.670;2022-07-11T14:48:59;21.50;99.90
15481;DHT22;7842;50.904;6.670;2022-07-11T14:51:25;21.50;99.90
15481;DHT22;7842;50.904;6.670;2022-07-11T14:53:53;21.70;99.90
15481;DHT22;7842;50.904;6.670;2022-07-11T14:56:18;21.90;99.90
15481;DHT22;7842;50.904;6.670;2022-07-11T14:58:44;22.10;99.90
15481;DHT22;7842;50.904;6.670;2022-07-11T15:01:10;22.00;99.90
15481;DHT22;7842;50.904;6.670;2022-07-11T15:03:35;21.90;99.90
15481;DHT22;7842;50.904;6.670;2022-07-11T15:06:12;21.70;99.90
15481;DHT22;7842;50.904;6.670;2022-07-11T15:08:38;21.60;99.90
15481;DHT22;7842;50.904;6.670;2022-07-11T15:11:23;21.60;99.90
15481;DHT22;7842;50.904;6.670;2022-07-11T15:14:09;22.00;99.90
15481;DHT22;7842;50.904;6.670;2022-07-11T15:16:35;21.70;99.90
15481;DHT22;7842;50.904;6.670;2022-07-11T15:19:03;21.80;99.90
15481;DHT22;7842;50.904;6.670;2022-07-11T15:21:29;22.00;99.90
15481;DHT22;7842;50.904;6.670;2022-07-11T15:23:55;22.00;99.90
15481;DHT22;7842;50.904;6.670;2022-07-11T15:26:21;21.80;99.90
15481;DHT22;7842;50.904;6.670;2022-07-11T15:28:47;21.70;99.90
15481;DHT22;7842;50.904;6.670;2022-07-11T15:31:13;21.90;99.90
15481;DHT22;7842;50.904;6.670;2022-07-11T15:33:39;21.70;99.90
15481;DHT22;7842;50.904;6.670;2022-07-11T15:36:06;21.70;99.90
15481;DHT22;7842;50.904;6.670;2022-07-11T15:38:32;21.70;99.90
15481;DHT22;7842;50.904;6.670;2022-07-11T15:40:57;21.70;99.90
15481;DHT22;7842;50.904;6.670;2022-07-11T15:43:23;23.80;99.90
15481;DHT22;7842;50.904;6.670;2022-07-11T15:45:49;22.30;99.90
15481;DHT22;7842;50.904;6.670;2022-07-11T15:48:15;21.80;99.90
15481;DHT22;7842;50.904;6.670;2022-07-11T15:50:40;21.80;99.90
15481;DHT22;7842;50.904;6.670;2022-07-11T15:53:08;22.00;99.90
15481;DHT22;7842;50.904;6.670;2022-07-11T15:55:33;22.30;99.90
15481;DHT22;7842;50.904;6.670;2022-07-11T15:57:59;23.50;99.90
15481;DHT22;7842;50.904;6.670;2022-07-11T16:00:24;22.70;99.90
15481;DHT22;7842;50.904;6.670;2022-07-11T16:02:50;22.90;99.90
15481;DHT22;7842;50.904;6.670;2022-07-11T16:05:16;23.10;99.90
15481;DHT22;7842;50.904;6.670;2022-07-11T16:07:42;23.20;99.90
15481;DHT22;7842;50.904;6.670;2022-07-11T16:10:08;22.90;99.90
15481;DHT22;7842;50.904;6.670;2022-07-11T16:12:34;22.70;99.90
15481;DHT22;7842;50.904;6.670;2022-07-11T16:15:02;20.10;99.90
15481;DHT22;7842;50.904;6.670;2022-07-11T16:17:28;22.30;99.90
15481;DHT22;7842;50.904;6.670;2022-07-11T16:19:54;22.40;99.90
15481;DHT22;7842;50.904;6.670;2022-07-11T16:22:19;22.20;99.90
15481;DHT22;7842;50.904;6.670;2022-07-11T16:24:45;22.00;99.90
15481;DHT22;7842;50.904;6.670;2022-07-11T16:27:11;22.10;99.90
15481;DHT22;7842;50.904;6.670;2022-07-11T16:29:37;22.20;99.90